Neave, Kentucky
Current Conditions -  °F | °C
As of 12:53 PM on Friday 21 Nov 2014 (Local Time) from KLUK Reporting Station
Clear Clear  
Wind Chill: 31°   Ceiling: Unl
Heat Index: 31°   Visibility: 10mi
Dew Point: 12°   Wind: 3mph
Humidity: 46%   Direction: NA
Pressure: 30.53"   Gusts: NA
Location:  38.6506°N, 84.351°W
Report Text: KLUK 211753Z VRB03KT 10SM CLR M01/M11 A3053 RMK AO2 SLP345 T10061111 11006 21100 58004
Loading
Personal Weather Stations






























Interactive Weather Map New forecast layout! Learn more

10-Day Weather Forecast

Advertisements
Track Severe Weather on mobile